createdAt,value
2022-12-09T00:01:16.777Z,15.85
2022-12-09T00:03:43.743Z,12.45
2022-12-09T00:06:11.956Z,7.95
2022-12-09T00:08:38.482Z,12.88
2022-12-09T00:11:05.337Z,10.13
2022-12-09T00:13:31.647Z,12.75
2022-12-09T00:15:58.039Z,10.27
2022-12-09T00:18:25.759Z,8.90
2022-12-09T00:20:52.172Z,19.73
2022-12-09T00:23:18.701Z,12.38
2022-12-09T00:25:45.021Z,10.05
2022-12-09T00:28:11.378Z,14.07
2022-12-09T00:30:37.804Z,15.48
2022-12-09T00:33:04.317Z,11.45
2022-12-09T00:35:31.986Z,11.98
2022-12-09T00:37:58.254Z,12.40
2022-12-09T00:40:24.572Z,15.10
2022-12-09T00:42:51.053Z,11.52
2022-12-09T00:45:17.479Z,14.25
2022-12-09T00:47:43.895Z,17.40
2022-12-09T00:50:10.868Z,15.10
2022-12-09T00:52:38.772Z,12.85
2022-12-09T00:55:05.620Z,12.02
2022-12-09T00:57:32.088Z,12.18
2022-12-09T00:59:58.358Z,13.98
2022-12-09T01:02:24.846Z,11.63
2022-12-09T01:04:51.626Z,10.98
2022-12-09T01:07:18.337Z,25.98
2022-12-09T01:09:46.601Z,10.70
2022-12-09T01:12:12.947Z,11.50
2022-12-09T01:14:39.274Z,13.13
2022-12-09T01:17:05.623Z,12.48
2022-12-09T01:19:31.927Z,11.07
2022-12-09T01:21:58.309Z,11.52
2022-12-09T01:24:24.643Z,12.48
2022-12-09T01:26:52.462Z,8.82
2022-12-09T01:29:18.955Z,12.27
2022-12-09T01:31:45.373Z,12.20
2022-12-09T01:34:11.685Z,11.65
2022-12-09T01:36:37.988Z,14.10
2022-12-09T01:39:04.875Z,12.23
2022-12-09T01:41:32.425Z,12.77
2022-12-09T01:44:17.579Z,12.38
2022-12-09T01:46:44.498Z,13.82
2022-12-09T01:49:13.179Z,14.02
2022-12-09T01:51:40.222Z,15.02
2022-12-09T01:54:06.889Z,14.10
2022-12-09T01:56:34.161Z,13.10
2022-12-09T01:59:03.002Z,25.25
2022-12-09T02:01:30.857Z,20.17
2022-12-09T02:03:57.683Z,16.63
2022-12-09T02:06:25.208Z,12.18
2022-12-09T02:08:52.385Z,10.98
2022-12-09T02:11:26.088Z,13.30
2022-12-09T02:13:55.339Z,10.57
2022-12-09T02:16:23.568Z,13.50
2022-12-09T02:18:55.201Z,12.73
2022-12-09T02:21:26.070Z,13.27
2022-12-09T02:23:55.587Z,10.75
2022-12-09T02:26:24.711Z,10.98
2022-12-09T02:29:12.500Z,11.70
2022-12-09T02:34:10.493Z,13.00
2022-12-09T02:36:39.875Z,14.45
2022-12-09T02:39:07.375Z,13.80
2022-12-09T02:41:34.050Z,13.80
2022-12-09T02:44:05.434Z,9.10
2022-12-09T02:46:34.208Z,12.05
2022-12-09T02:49:01.964Z,14.23
2022-12-09T02:51:31.508Z,15.38
2022-12-09T02:53:59.741Z,13.18
2022-12-09T02:56:27.403Z,13.38
2022-12-09T02:58:54.171Z,11.57
2022-12-09T03:01:34.890Z,14.55
2022-12-09T03:04:02.627Z,12.60
2022-12-09T03:06:34.433Z,16.42
2022-12-09T03:09:03.327Z,12.23
2022-12-09T03:11:30.427Z,12.73
2022-12-09T03:13:58.237Z,11.77
2022-12-09T03:16:28.186Z,16.00
2022-12-09T03:18:56.730Z,11.25
2022-12-09T03:21:24.595Z,11.35
2022-12-09T03:23:54.258Z,11.68
2022-12-09T03:26:22.209Z,11.65
2022-12-09T03:28:50.165Z,11.68
2022-12-09T03:33:42.663Z,9.73
2022-12-09T03:36:10.718Z,12.70
2022-12-09T03:38:38.483Z,12.20
2022-12-09T03:41:09.253Z,12.63
2022-12-09T03:43:37.717Z,13.02
2022-12-09T03:46:04.441Z,11.32
2022-12-09T03:48:31.358Z,13.45
2022-12-09T03:50:59.558Z,11.23
2022-12-09T03:53:29.159Z,18.20
2022-12-09T03:55:57.658Z,11.15
2022-12-09T03:58:27.277Z,13.00
2022-12-09T04:00:53.781Z,14.15
2022-12-09T04:03:20.498Z,17.20
2022-12-09T04:05:47.202Z,13.95
2022-12-09T04:08:13.774Z,12.13
2022-12-09T04:10:40.421Z,14.57
2022-12-09T04:13:06.829Z,12.52
2022-12-09T04:15:34.685Z,11.50
2022-12-09T04:18:01.518Z,11.98
2022-12-09T04:20:28.047Z,14.07
2022-12-09T04:22:55.612Z,17.15
2022-12-09T04:25:21.893Z,15.10
2022-12-09T04:27:49.338Z,14.90
2022-12-09T04:30:17.090Z,13.35
2022-12-09T04:32:45.137Z,11.60
2022-12-09T04:35:11.906Z,11.27
2022-12-09T04:37:38.208Z,16.20
2022-12-09T04:40:05.562Z,14.68
2022-12-09T04:42:32.707Z,16.13
2022-12-09T04:44:59.420Z,19.95
2022-12-09T04:47:25.823Z,13.23
2022-12-09T04:49:54.266Z,14.20
2022-12-09T04:52:20.710Z,15.60
2022-12-09T04:54:48.992Z,11.90
2022-12-09T04:57:15.286Z,11.83
2022-12-09T04:59:41.990Z,13.50
2022-12-09T05:02:08.587Z,11.77
2022-12-09T05:04:35.318Z,13.00
2022-12-09T05:07:03.216Z,14.43
2022-12-09T05:09:30.207Z,16.25
2022-12-09T05:11:56.912Z,11.60
2022-12-09T05:14:23.623Z,12.27
2022-12-09T05:16:50.276Z,11.95
2022-12-09T05:19:16.814Z,14.38
2022-12-09T05:21:43.905Z,15.95
2022-12-09T05:24:11.917Z,16.33
2022-12-09T05:26:38.463Z,15.38
2022-12-09T05:29:04.847Z,14.38
2022-12-09T05:31:31.323Z,12.38
2022-12-09T05:33:58.563Z,11.40
2022-12-09T05:36:25.792Z,11.15
2022-12-09T05:38:52.643Z,56.92
2022-12-09T05:41:21.032Z,16.58
2022-12-09T05:43:47.745Z,11.93
2022-12-09T05:46:14.729Z,11.90
2022-12-09T05:48:41.688Z,17.55
2022-12-09T05:51:11.146Z,14.15
2022-12-09T05:53:37.916Z,11.55
2022-12-09T05:56:04.963Z,12.77
2022-12-09T05:58:33.243Z,12.40
2022-12-09T06:01:03.654Z,15.98
2022-12-09T06:03:30.598Z,12.05
2022-12-09T06:05:57.200Z,22.00
2022-12-09T06:08:24.131Z,14.77
2022-12-09T06:10:51.103Z,44.35
2022-12-09T06:13:18.290Z,12.80
2022-12-09T06:15:46.199Z,14.48
2022-12-09T06:18:13.140Z,13.50
2022-12-09T06:20:39.882Z,12.50
2022-12-09T06:23:06.638Z,17.42
2022-12-09T06:25:33.269Z,18.10
2022-12-09T06:28:00.277Z,15.43
2022-12-09T06:30:26.910Z,22.13
2022-12-09T06:32:54.907Z,13.80
2022-12-09T06:35:21.496Z,16.42
2022-12-09T06:37:51.127Z,17.05
2022-12-09T06:42:43.902Z,13.55
2022-12-09T06:45:11.553Z,15.68
2022-12-09T06:47:38.272Z,16.65
2022-12-09T06:50:08.123Z,16.58
2022-12-09T06:52:38.306Z,17.58
2022-12-09T06:55:06.039Z,22.98
2022-12-09T06:57:32.894Z,14.73
2022-12-09T06:59:59.490Z,15.23
2022-12-09T07:02:28.063Z,14.90
2022-12-09T07:05:00.934Z,12.02
2022-12-09T07:07:30.480Z,16.45
2022-12-09T07:09:57.155Z,14.10
2022-12-09T07:12:24.114Z,13.05
2022-12-09T07:15:02.622Z,14.45
2022-12-09T07:17:34.685Z,13.30
2022-12-09T07:20:06.557Z,19.42
2022-12-09T07:22:35.697Z,16.10
2022-12-09T07:25:02.991Z,17.90
2022-12-09T07:27:29.921Z,18.83
2022-12-09T07:29:58.459Z,17.67
2022-12-09T07:32:25.821Z,20.52
2022-12-09T07:34:52.702Z,17.77
2022-12-09T07:37:20.083Z,21.42
2022-12-09T07:39:48.495Z,18.85
2022-12-09T07:42:19.332Z,17.55
2022-12-09T07:45:07.782Z,17.02
2022-12-09T07:48:12.925Z,23.40
2022-12-09T07:50:40.192Z,18.52
2022-12-09T07:53:23.684Z,30.30
2022-12-09T07:55:52.831Z,17.52
2022-12-09T07:58:27.632Z,18.00
2022-12-09T08:00:54.683Z,17.50
2022-12-09T08:03:21.674Z,24.48
2022-12-09T08:05:49.126Z,19.05
2022-12-09T08:08:16.857Z,24.27
2022-12-09T08:10:46.897Z,24.80
2022-12-09T08:13:15.374Z,22.02
2022-12-09T08:15:44.600Z,20.42
2022-12-09T08:20:58.132Z,19.90
2022-12-09T08:23:28.380Z,21.80
2022-12-09T08:25:56.511Z,23.95
2022-12-09T08:28:24.884Z,24.80
2022-12-09T08:30:52.319Z,21.40
2022-12-09T08:33:21.472Z,18.15
2022-12-09T08:35:51.226Z,39.65
2022-12-09T08:38:19.172Z,21.08
2022-12-09T08:40:47.558Z,26.52
2022-12-09T08:43:14.656Z,23.33
2022-12-09T08:45:43.255Z,18.55
2022-12-09T08:48:12.732Z,23.42
2022-12-09T08:50:40.093Z,19.90
2022-12-09T08:53:07.286Z,19.67
2022-12-09T08:55:34.163Z,22.83
2022-12-09T08:58:00.970Z,22.73
2022-12-09T09:00:27.852Z,20.98
2022-12-09T09:02:56.516Z,23.20
2022-12-09T09:05:23.822Z,21.80
2022-12-09T09:07:51.667Z,18.80
2022-12-09T09:10:19.436Z,21.08
2022-12-09T09:12:48.707Z,29.40
2022-12-09T09:15:18.121Z,19.00
2022-12-09T09:17:51.237Z,19.63
2022-12-09T09:20:20.064Z,19.45
2022-12-09T09:22:50.299Z,18.05
2022-12-09T09:25:17.181Z,26.75
2022-12-09T09:27:45.398Z,27.70
2022-12-09T09:30:15.990Z,15.23
2022-12-09T09:32:43.134Z,15.80
2022-12-09T09:35:12.898Z,17.67
2022-12-09T09:37:41.058Z,21.50
2022-12-09T09:40:09.955Z,17.33
2022-12-09T09:42:43.434Z,18.10
2022-12-09T09:45:12.020Z,16.58
2022-12-09T09:47:40.871Z,23.83
2022-12-09T09:52:35.650Z,20.40
2022-12-09T09:55:12.625Z,15.20
2022-12-09T09:57:42.409Z,15.65
2022-12-09T10:00:14.611Z,15.27
2022-12-09T10:02:49.205Z,17.25
2022-12-09T10:05:21.773Z,15.57
2022-12-09T10:07:49.856Z,15.45
2022-12-09T10:10:26.018Z,17.63
2022-12-09T10:13:05.275Z,20.20
2022-12-09T10:15:40.902Z,16.67
2022-12-09T10:18:11.163Z,21.27
2022-12-09T10:20:37.832Z,22.38
2022-12-09T10:23:06.017Z,17.08
2022-12-09T10:25:35.643Z,21.42
2022-12-09T10:28:05.900Z,12.93
2022-12-09T10:30:39.805Z,14.05
2022-12-09T10:33:10.376Z,36.33
2022-12-09T10:35:37.359Z,26.13
2022-12-09T10:38:08.295Z,26.30
2022-12-09T10:40:38.847Z,17.40
2022-12-09T10:43:20.672Z,21.90
2022-12-09T10:46:16.852Z,14.80
2022-12-09T10:48:36.482Z,19.23
2022-12-09T10:51:04.318Z,16.20
2022-12-09T10:53:31.836Z,22.23
2022-12-09T10:56:00.479Z,16.52
2022-12-09T10:58:28.256Z,32.72
2022-12-09T11:01:02.271Z,20.73
2022-12-09T11:03:30.751Z,15.93
2022-12-09T11:05:59.343Z,12.95
2022-12-09T11:08:26.440Z,29.85
2022-12-09T11:10:53.576Z,16.70
2022-12-09T11:13:26.837Z,16.25
2022-12-09T11:15:53.694Z,21.58
2022-12-09T11:18:23.046Z,15.85
2022-12-09T11:21:00.920Z,19.02
2022-12-09T11:23:28.001Z,16.33
2022-12-09T11:25:55.748Z,14.63
2022-12-09T11:28:25.328Z,17.13
2022-12-09T11:31:27.056Z,24.48
2022-12-09T11:33:41.732Z,18.88
2022-12-09T11:36:09.859Z,15.43
2022-12-09T11:38:37.800Z,19.17
2022-12-09T11:41:06.671Z,19.38
2022-12-09T11:43:36.084Z,25.77
2022-12-09T11:46:06.722Z,18.98
2022-12-09T11:48:40.092Z,15.98
2022-12-09T11:51:18.112Z,20.00
2022-12-09T11:53:45.514Z,20.90
2022-12-09T11:56:15.621Z,18.48
2022-12-09T11:58:44.982Z,18.48
2022-12-09T12:01:12.929Z,17.50
2022-12-09T12:03:40.686Z,16.35
2022-12-09T12:06:11.118Z,15.30
2022-12-09T12:08:46.715Z,17.40
2022-12-09T12:11:15.937Z,15.73
2022-12-09T12:16:11.089Z,17.15
2022-12-09T12:18:40.370Z,15.95
2022-12-09T12:21:20.253Z,15.57
2022-12-09T12:24:04.535Z,17.90
2022-12-09T12:26:34.704Z,18.45
2022-12-09T12:29:17.410Z,19.25
2022-12-09T12:31:52.598Z,17.48
2022-12-09T12:34:25.901Z,13.95
2022-12-09T12:36:57.954Z,17.95
2022-12-09T12:39:29.190Z,19.13
2022-12-09T12:41:57.271Z,17.42
2022-12-09T12:44:28.983Z,18.33
2022-12-09T12:47:01.341Z,18.38
2022-12-09T12:49:35.298Z,19.70
2022-12-09T12:52:05.263Z,17.05
2022-12-09T12:54:36.021Z,16.77
2022-12-09T12:57:09.677Z,21.98
2022-12-09T12:59:40.082Z,22.27
2022-12-09T13:02:16.526Z,22.27
2022-12-09T13:04:46.734Z,24.27
2022-12-09T13:07:17.601Z,24.67
2022-12-09T13:09:45.191Z,22.63
2022-12-09T13:12:13.718Z,25.42
2022-12-09T13:14:45.209Z,22.67
2022-12-09T13:17:15.506Z,19.77
2022-12-09T13:19:43.590Z,22.17
2022-12-09T13:22:14.102Z,23.33
2022-12-09T13:24:41.652Z,30.30
2022-12-09T13:27:11.427Z,18.92
2022-12-09T13:29:41.478Z,25.20
2022-12-09T13:32:16.552Z,21.10
2022-12-09T13:34:45.736Z,21.52
2022-12-09T13:39:54.627Z,22.80
2022-12-09T13:42:32.873Z,22.08
2022-12-09T13:45:05.015Z,21.52
2022-12-09T13:47:36.345Z,32.35
2022-12-09T13:50:05.753Z,20.85
2022-12-09T13:52:39.651Z,22.10
2022-12-09T13:55:17.225Z,39.45
2022-12-09T13:57:46.488Z,20.15
2022-12-09T14:00:15.679Z,23.65
2022-12-09T14:05:12.265Z,19.52
2022-12-09T14:07:39.990Z,20.30
2022-12-09T14:10:07.113Z,20.85
2022-12-09T14:12:57.741Z,21.73
2022-12-09T14:15:34.972Z,25.95
2022-12-09T14:18:02.830Z,18.95
2022-12-09T14:20:35.433Z,19.23
2022-12-09T14:23:11.684Z,18.88
2022-12-09T14:25:51.184Z,20.80
2022-12-09T14:28:38.925Z,25.67
2022-12-09T14:31:09.070Z,22.27
2022-12-09T14:33:36.621Z,24.52
2022-12-09T14:36:06.109Z,26.58
2022-12-09T14:38:36.190Z,18.88
2022-12-09T14:41:14.486Z,23.60
2022-12-09T14:43:50.518Z,23.60
2022-12-09T14:46:22.036Z,22.52
2022-12-09T14:48:52.391Z,24.08
2022-12-09T14:51:25.814Z,24.75
2022-12-09T14:53:53.871Z,21.23
2022-12-09T14:56:21.263Z,28.42
2022-12-09T14:58:48.252Z,21.23
2022-12-09T15:01:14.567Z,24.88
2022-12-09T15:03:45.733Z,25.98
2022-12-09T15:06:16.219Z,27.77
2022-12-09T15:08:43.839Z,25.80
2022-12-09T15:11:13.576Z,26.15
2022-12-09T15:13:40.981Z,27.52
2022-12-09T15:16:08.447Z,31.58
2022-12-09T15:18:36.908Z,26.70
2022-12-09T15:21:03.343Z,31.38
2022-12-09T15:23:30.683Z,26.88
2022-12-09T15:25:59.715Z,31.15
2022-12-09T15:28:27.249Z,25.23
2022-12-09T15:30:54.699Z,50.45
2022-12-09T15:33:21.195Z,80.47
2022-12-09T15:35:50.707Z,37.05
2022-12-09T15:38:17.069Z,32.38
2022-12-09T15:40:45.152Z,25.42
2022-12-09T15:43:14.065Z,27.00
2022-12-09T15:45:42.578Z,30.60
2022-12-09T15:48:10.381Z,26.63
2022-12-09T15:50:39.177Z,29.23
2022-12-09T15:53:09.505Z,31.52
2022-12-09T15:55:37.297Z,22.35
2022-12-09T15:58:05.235Z,33.60
2022-12-09T16:00:36.564Z,25.88
2022-12-09T16:03:03.013Z,30.70
2022-12-09T16:05:29.320Z,23.27
2022-12-09T16:07:56.532Z,27.60
2022-12-09T16:10:23.185Z,25.02
2022-12-09T16:13:03.046Z,26.63
2022-12-09T16:15:41.305Z,34.80
2022-12-09T16:18:09.177Z,34.20
2022-12-09T16:20:39.195Z,27.98
2022-12-09T16:23:17.842Z,23.67
2022-12-09T16:25:45.687Z,24.98
2022-12-09T16:28:17.605Z,28.77
2022-12-09T16:30:45.797Z,37.05
2022-12-09T16:33:15.241Z,32.93
2022-12-09T16:35:42.531Z,29.83
2022-12-09T16:38:13.406Z,30.10
2022-12-09T16:40:57.709Z,26.27
2022-12-09T16:43:25.414Z,36.63
2022-12-09T16:45:53.775Z,36.38
2022-12-09T16:48:20.761Z,35.95
2022-12-09T16:50:48.377Z,35.80
2022-12-09T16:53:16.049Z,29.42
2022-12-09T16:55:48.490Z,43.65
2022-12-09T16:58:14.781Z,48.97
2022-12-09T17:00:41.099Z,57.28
2022-12-09T17:03:10.503Z,49.40
2022-12-09T17:05:36.890Z,35.55
2022-12-09T17:08:03.424Z,33.25
2022-12-09T17:10:29.878Z,28.90
2022-12-09T17:12:56.269Z,38.92
2022-12-09T17:15:22.700Z,28.00
2022-12-09T17:17:49.240Z,29.45
2022-12-09T17:20:16.960Z,29.00
2022-12-09T17:22:43.315Z,32.45
2022-12-09T17:25:09.693Z,27.42
2022-12-09T17:27:36.053Z,27.20
2022-12-09T17:30:02.347Z,26.15
2022-12-09T17:32:28.693Z,27.02
2022-12-09T17:34:54.933Z,25.60
2022-12-09T17:37:22.553Z,37.83
2022-12-09T17:39:54.571Z,33.00
2022-12-09T17:42:23.433Z,29.30
2022-12-09T17:44:49.705Z,35.30
2022-12-09T17:47:15.973Z,28.80
2022-12-09T17:49:42.292Z,26.38
2022-12-09T17:52:08.543Z,36.97
2022-12-09T17:54:36.173Z,31.70
2022-12-09T17:57:02.437Z,31.92
2022-12-09T17:59:28.747Z,35.00
2022-12-09T18:01:55.070Z,27.58
2022-12-09T18:04:21.405Z,36.28
2022-12-09T18:06:47.696Z,28.02
2022-12-09T18:09:16.120Z,30.45
2022-12-09T18:11:44.417Z,27.05
2022-12-09T18:14:10.688Z,25.80
2022-12-09T18:16:37.042Z,26.13
2022-12-09T18:19:03.765Z,34.42
2022-12-09T18:21:30.344Z,31.52
2022-12-09T18:23:56.656Z,29.27
2022-12-09T18:26:28.552Z,27.30
2022-12-09T18:28:58.335Z,33.60
2022-12-09T18:31:24.849Z,35.95
2022-12-09T18:33:51.477Z,25.55
2022-12-09T18:36:18.534Z,25.88
2022-12-09T18:38:45.176Z,29.98
2022-12-09T18:41:11.813Z,31.40
2022-12-09T18:43:39.841Z,29.77
2022-12-09T18:46:09.203Z,29.73
2022-12-09T18:48:35.885Z,38.42
2022-12-09T18:51:02.198Z,38.63
2022-12-09T18:53:28.487Z,37.60
2022-12-09T18:55:54.811Z,39.20
2022-12-09T18:58:42.580Z,30.50
2022-12-09T19:01:17.563Z,29.80
2022-12-09T19:03:44.004Z,31.92
2022-12-09T19:06:21.836Z,34.85
2022-12-09T19:08:48.439Z,29.90
2022-12-09T19:11:14.726Z,34.40
2022-12-09T19:13:41.068Z,35.25
2022-12-09T19:16:07.711Z,33.10
2022-12-09T19:18:35.736Z,33.45
2022-12-09T19:21:08.733Z,24.63
2022-12-09T19:23:35.133Z,34.67
2022-12-09T19:26:01.448Z,28.80
2022-12-09T19:28:27.780Z,37.22
2022-12-09T19:30:54.116Z,33.85
2022-12-09T19:33:20.468Z,35.67
2022-12-09T19:35:48.137Z,35.55
2022-12-09T19:38:14.488Z,30.27
2022-12-09T19:40:40.776Z,33.08
2022-12-09T19:43:07.110Z,32.83
2022-12-09T19:45:33.425Z,28.38
2022-12-09T19:47:59.700Z,31.15
2022-12-09T19:50:25.972Z,29.88
2022-12-09T19:52:53.661Z,33.05
2022-12-09T19:55:19.973Z,33.20
2022-12-09T19:57:46.308Z,33.60
2022-12-09T20:00:13.173Z,32.10
2022-12-09T20:02:39.527Z,29.45
2022-12-09T20:05:06.105Z,33.42
2022-12-09T20:07:32.412Z,42.60
2022-12-09T20:10:00.060Z,34.67
2022-12-09T20:12:26.373Z,36.83
2022-12-09T20:14:52.678Z,25.75
2022-12-09T20:17:18.996Z,28.40
2022-12-09T20:19:45.330Z,32.25
2022-12-09T20:22:11.602Z,32.85
2022-12-09T20:24:37.898Z,32.38
2022-12-09T20:27:05.555Z,33.90
2022-12-09T20:29:37.301Z,34.25
2022-12-09T20:32:04.716Z,33.05
2022-12-09T20:34:31.082Z,34.33
2022-12-09T20:36:57.515Z,42.17
2022-12-09T20:39:23.823Z,29.60
2022-12-09T20:41:50.274Z,34.22
2022-12-09T20:44:18.248Z,25.65
2022-12-09T20:46:45.426Z,33.03
2022-12-09T20:49:11.732Z,29.15
2022-12-09T20:51:38.832Z,26.48
2022-12-09T20:54:05.812Z,31.55
2022-12-09T20:56:32.571Z,37.35
2022-12-09T20:58:58.888Z,41.92
2022-12-09T21:01:27.468Z,38.97
2022-12-09T21:03:54.499Z,42.20
2022-12-09T21:06:22.009Z,33.92
2022-12-09T21:08:48.465Z,27.70
2022-12-09T21:11:16.362Z,57.75
2022-12-09T21:13:45.129Z,29.80
2022-12-09T21:16:12.421Z,35.10
2022-12-09T21:18:40.142Z,29.92
2022-12-09T21:21:06.444Z,30.38
2022-12-09T21:23:34.863Z,26.77
2022-12-09T21:26:04.976Z,35.72
2022-12-09T21:28:31.292Z,29.95
2022-12-09T21:30:57.585Z,29.98
2022-12-09T21:33:23.905Z,29.00
2022-12-09T21:35:51.589Z,31.70
2022-12-09T21:38:17.904Z,28.15
2022-12-09T21:40:44.148Z,33.50
2022-12-09T21:43:10.439Z,27.23
2022-12-09T21:45:36.730Z,51.33
2022-12-09T21:48:03.109Z,36.15
2022-12-09T21:50:29.412Z,29.60
2022-12-09T21:52:57.033Z,29.60
2022-12-09T21:55:23.319Z,28.00
2022-12-09T21:57:49.562Z,29.55
2022-12-09T22:00:16.206Z,32.42
2022-12-09T22:02:42.564Z,36.88
2022-12-09T22:05:09.083Z,32.53
2022-12-09T22:07:35.360Z,35.83
2022-12-09T22:10:03.081Z,31.95
2022-12-09T22:12:29.386Z,31.00
2022-12-09T22:14:55.681Z,31.17
2022-12-09T22:17:21.972Z,31.52
2022-12-09T22:19:56.355Z,32.60
2022-12-09T22:22:34.544Z,41.42
2022-12-09T22:25:00.933Z,32.63
2022-12-09T22:27:28.752Z,28.17
2022-12-09T22:29:55.021Z,30.77
2022-12-09T22:32:21.301Z,28.60
2022-12-09T22:34:47.624Z,31.05
2022-12-09T22:37:42.079Z,32.42
2022-12-09T22:40:00.276Z,33.50
2022-12-09T22:42:29.797Z,28.67
2022-12-09T22:44:56.092Z,30.42
2022-12-09T22:47:22.382Z,28.20
2022-12-09T22:49:48.634Z,36.58
2022-12-09T22:52:14.903Z,36.47
2022-12-09T22:54:41.216Z,33.15
2022-12-09T22:57:07.741Z,33.10
2022-12-09T22:59:41.375Z,31.27
2022-12-09T23:02:09.234Z,36.03
2022-12-09T23:04:35.583Z,28.00
2022-12-09T23:07:02.096Z,31.95
2022-12-09T23:09:28.467Z,35.90
2022-12-09T23:11:54.798Z,35.30
2022-12-09T23:14:21.134Z,39.03
2022-12-09T23:16:48.823Z,38.53
2022-12-09T23:19:15.435Z,38.72
2022-12-09T23:21:42.356Z,33.25
2022-12-09T23:24:10.839Z,30.00
2022-12-09T23:29:04.690Z,37.70
2022-12-09T23:31:32.168Z,33.35
2022-12-09T23:34:00.303Z,35.88
2022-12-09T23:36:28.692Z,42.78
2022-12-09T23:38:54.933Z,30.55
2022-12-09T23:41:21.669Z,38.90
2022-12-09T23:43:48.529Z,37.28
2022-12-09T23:46:16.572Z,35.22
2022-12-09T23:48:43.329Z,35.53
2022-12-09T23:51:11.838Z,33.60
2022-12-09T23:53:38.455Z,34.00
2022-12-09T23:56:05.277Z,35.03
2022-12-09T23:58:31.557Z,35.35
